createdAt,value
2023-02-24T00:04:52.121Z,14.27
2023-02-24T00:09:54.230Z,14.36
2023-02-24T00:14:56.467Z,14.45
2023-02-24T00:19:58.614Z,14.26
2023-02-24T00:25:02.915Z,14.30
2023-02-24T00:30:06.664Z,14.36
2023-02-24T00:35:09.600Z,14.69
2023-02-24T00:40:12.428Z,14.60
2023-02-24T00:45:17.055Z,14.63
2023-02-24T00:50:19.270Z,14.62
2023-02-24T00:55:23.611Z,14.70
2023-02-24T01:00:26.095Z,14.69
2023-02-24T01:05:28.764Z,14.52
2023-02-24T01:10:30.983Z,14.78
2023-02-24T01:15:33.052Z,14.56
2023-02-24T01:20:35.730Z,14.55
2023-02-24T01:25:39.241Z,14.74
2023-02-24T01:30:43.331Z,14.64
2023-02-24T01:35:45.877Z,14.87
2023-02-24T01:40:56.793Z,14.72
2023-02-24T01:45:59.081Z,14.95
2023-02-24T01:51:02.110Z,14.90
2023-02-24T01:56:05.901Z,14.87
2023-02-24T02:01:10.466Z,14.64
2023-02-24T02:06:14.292Z,14.72
2023-02-24T02:11:23.906Z,14.58
2023-02-24T02:16:51.785Z,14.95
2023-02-24T02:22:05.864Z,14.95
2023-02-24T02:27:29.764Z,14.97
2023-02-24T02:32:57.588Z,14.79
2023-02-24T02:38:05.505Z,14.32
2023-02-24T02:43:32.456Z,14.95
2023-02-24T02:48:55.983Z,14.83
2023-02-24T02:54:16.783Z,15.08
2023-02-24T02:59:23.681Z,15.07
2023-02-24T03:04:26.912Z,15.01
2023-02-24T03:09:37.384Z,14.99
2023-02-24T03:14:46.403Z,14.61
2023-02-24T03:20:00.435Z,14.84
2023-02-24T03:25:05.492Z,14.62
2023-02-24T03:30:21.590Z,14.39
2023-02-24T03:35:28.151Z,14.59
2023-02-24T03:40:34.006Z,14.73
2023-02-24T03:45:38.631Z,14.83
2023-02-24T03:50:42.594Z,14.75
2023-02-24T03:56:00.838Z,14.71
2023-02-24T04:01:15.172Z,14.83
2023-02-24T04:06:59.958Z,14.71
2023-02-24T04:12:32.294Z,14.83
2023-02-24T04:17:42.959Z,14.83
2023-02-24T04:22:50.026Z,14.84
2023-02-24T04:27:54.897Z,14.83
2023-02-24T04:32:57.100Z,14.96
2023-02-24T04:37:59.658Z,14.94
2023-02-24T04:43:02.164Z,14.95
2023-02-24T04:48:04.409Z,14.92
2023-02-24T04:53:10.329Z,14.91
2023-02-24T04:58:19.570Z,15.00
2023-02-24T05:03:28.756Z,14.99
2023-02-24T05:08:31.555Z,14.66
2023-02-24T05:13:34.108Z,14.81
2023-02-24T05:18:37.507Z,14.81
2023-02-24T05:23:44.727Z,14.99
2023-02-24T05:28:52.510Z,15.01
2023-02-24T05:33:58.022Z,15.03
2023-02-24T05:39:07.010Z,14.97
2023-02-24T05:44:14.138Z,15.11
2023-02-24T05:49:24.248Z,15.16
2023-02-24T05:54:32.123Z,15.21
2023-02-24T05:59:35.214Z,15.11
2023-02-24T06:04:51.781Z,14.90
2023-02-24T06:09:57.645Z,14.86
2023-02-24T06:15:00.448Z,15.01
2023-02-24T06:20:05.526Z,14.87
2023-02-24T06:25:08.716Z,14.89
2023-02-24T06:30:11.717Z,14.77
2023-02-24T06:35:13.937Z,14.87
2023-02-24T06:40:16.482Z,14.62
2023-02-24T06:45:19.124Z,14.96
2023-02-24T06:50:22.055Z,14.83
2023-02-24T06:55:27.391Z,14.71
2023-02-24T07:00:41.412Z,14.93
2023-02-24T07:05:54.621Z,14.86
2023-02-24T07:11:00.157Z,15.07
2023-02-24T07:16:07.477Z,15.05
2023-02-24T07:21:12.943Z,15.05
2023-02-24T07:26:17.784Z,15.20
2023-02-24T07:31:23.350Z,15.35
2023-02-24T07:36:30.497Z,15.53
2023-02-24T07:41:33.118Z,15.58
2023-02-24T07:46:35.536Z,15.58
2023-02-24T07:51:37.786Z,15.47
2023-02-24T07:56:46.378Z,15.57
2023-02-24T08:01:52.103Z,15.67
2023-02-24T08:06:58.939Z,15.78
2023-02-24T08:12:01.698Z,15.54
2023-02-24T08:17:05.793Z,15.65
2023-02-24T08:22:25.819Z,15.79
2023-02-24T08:27:32.939Z,15.73
2023-02-24T08:32:38.217Z,16.01
2023-02-24T08:37:41.098Z,15.80
2023-02-24T08:42:43.213Z,16.01
2023-02-24T08:47:45.693Z,15.96
2023-02-24T08:52:47.804Z,16.29
2023-02-24T08:57:53.672Z,16.57
2023-02-24T09:02:56.508Z,16.48
2023-02-24T09:07:58.668Z,16.74
2023-02-24T09:13:01.572Z,16.75
2023-02-24T09:18:07.871Z,16.83
2023-02-24T09:23:20.456Z,16.73
2023-02-24T09:28:27.907Z,16.86
2023-02-24T09:33:42.143Z,17.22
2023-02-24T09:39:02.244Z,17.21
2023-02-24T09:44:18.658Z,17.47
2023-02-24T09:49:24.993Z,17.47
2023-02-24T09:54:35.675Z,17.30
2023-02-24T10:00:25.211Z,17.34
2023-02-24T10:05:38.909Z,17.27
2023-02-24T10:11:01.071Z,17.36
2023-02-24T10:16:07.402Z,16.81
2023-02-24T10:21:31.972Z,17.02
2023-02-24T10:26:59.626Z,17.00
2023-02-24T10:32:19.123Z,17.40
2023-02-24T10:37:29.224Z,17.29
2023-02-24T10:42:34.894Z,17.67
2023-02-24T10:47:37.070Z,17.35
2023-02-24T10:52:53.631Z,18.08
2023-02-24T10:58:16.186Z,18.27
2023-02-24T11:03:36.668Z,18.28
2023-02-24T11:08:55.053Z,18.34
2023-02-24T11:14:22.424Z,18.59
2023-02-24T11:19:29.786Z,18.80
2023-02-24T11:24:32.361Z,18.79
2023-02-24T11:30:01.615Z,18.80
2023-02-24T11:35:21.393Z,19.22
2023-02-24T11:40:28.808Z,19.38
2023-02-24T11:45:40.128Z,19.47
2023-02-24T11:50:47.241Z,19.75
2023-02-24T11:55:57.431Z,20.07
2023-02-24T12:01:10.606Z,20.30
2023-02-24T12:06:31.044Z,20.14
2023-02-24T12:11:41.207Z,20.46
2023-02-24T12:16:48.340Z,20.75
2023-02-24T12:22:16.099Z,20.91
2023-02-24T12:27:21.221Z,20.98
2023-02-24T12:32:43.224Z,20.66
2023-02-24T12:38:19.071Z,20.67
2023-02-24T12:43:26.878Z,20.74
2023-02-24T12:49:01.341Z,20.74
2023-02-24T12:54:14.446Z,20.39
2023-02-24T12:59:22.875Z,20.46
2023-02-24T13:05:04.111Z,20.68
2023-02-24T13:10:14.933Z,21.18
2023-02-24T13:15:26.139Z,21.48
2023-02-24T13:20:34.389Z,21.61
2023-02-24T13:25:37.905Z,21.38
2023-02-24T13:30:44.232Z,21.49
2023-02-24T13:35:49.467Z,21.32
2023-02-24T13:40:51.941Z,21.59
2023-02-24T13:45:58.300Z,21.58
2023-02-24T13:51:32.244Z,21.74
2023-02-24T13:56:43.244Z,22.29
2023-02-24T14:01:58.106Z,22.74
2023-02-24T14:07:04.329Z,22.39
2023-02-24T14:12:19.700Z,22.46
2023-02-24T14:17:29.951Z,22.72
2023-02-24T14:22:32.927Z,22.91
2023-02-24T14:27:35.649Z,22.65
2023-02-24T14:32:37.912Z,22.88
2023-02-24T14:37:40.220Z,22.95
2023-02-24T14:42:50.122Z,23.24
2023-02-24T14:47:54.084Z,23.42
2023-02-24T14:53:10.265Z,23.41
2023-02-24T14:58:18.109Z,23.42
2023-02-24T15:03:29.855Z,22.73
2023-02-24T15:08:43.638Z,22.83
2023-02-24T15:13:56.380Z,23.19
2023-02-24T15:19:01.669Z,23.25
2023-02-24T15:24:13.932Z,23.27
2023-02-24T15:29:23.218Z,23.26
2023-02-24T15:34:37.036Z,23.13
2023-02-24T15:39:43.136Z,22.57
2023-02-24T15:45:25.784Z,22.05
2023-02-24T15:50:30.435Z,21.67
2023-02-24T15:55:33.133Z,21.22
2023-02-24T16:00:35.492Z,21.03
2023-02-24T16:05:38.190Z,20.78
2023-02-24T16:10:41.169Z,20.49
2023-02-24T16:15:45.889Z,20.09
2023-02-24T16:20:54.906Z,19.97
2023-02-24T16:25:59.571Z,19.76
2023-02-24T16:31:02.874Z,19.74
2023-02-24T16:36:12.332Z,19.45
2023-02-24T16:41:14.484Z,19.34
2023-02-24T16:46:20.424Z,19.24
2023-02-24T16:51:23.184Z,19.00
2023-02-24T16:56:25.328Z,18.80
2023-02-24T17:01:27.522Z,18.70
2023-02-24T17:06:30.042Z,18.52
2023-02-24T17:11:33.194Z,18.40
2023-02-24T17:16:39.788Z,18.30
2023-02-24T17:21:44.728Z,18.24
2023-02-24T17:26:47.233Z,18.02
2023-02-24T17:31:49.517Z,17.88
2023-02-24T17:36:51.890Z,17.72
2023-02-24T17:41:54.115Z,17.62
2023-02-24T17:46:56.396Z,17.66
2023-02-24T17:51:58.588Z,17.69
2023-02-24T17:57:00.862Z,17.61
2023-02-24T18:02:03.598Z,17.37
2023-02-24T18:07:05.745Z,17.36
2023-02-24T18:12:07.966Z,17.38
2023-02-24T18:17:10.115Z,17.15
2023-02-24T18:22:12.289Z,17.17
2023-02-24T18:27:14.514Z,17.05
2023-02-24T18:32:16.904Z,17.01
2023-02-24T18:37:19.330Z,17.02
2023-02-24T18:42:21.494Z,17.03
2023-02-24T18:47:23.654Z,16.81
2023-02-24T18:52:25.824Z,16.77
2023-02-24T18:57:28.135Z,16.72
2023-02-24T19:02:30.568Z,16.82
2023-02-24T19:07:32.834Z,16.80
2023-02-24T19:12:34.934Z,16.76
2023-02-24T19:17:37.110Z,16.75
2023-02-24T19:22:39.251Z,16.70
2023-02-24T19:27:41.447Z,16.65
2023-02-24T19:32:43.738Z,16.61
2023-02-24T19:37:49.281Z,16.17
2023-02-24T19:42:53.385Z,16.05
2023-02-24T19:47:55.465Z,16.18
2023-02-24T19:52:57.633Z,16.12
2023-02-24T19:58:00.150Z,16.06
2023-02-24T20:03:02.244Z,15.81
2023-02-24T20:08:04.534Z,15.73
2023-02-24T20:13:07.275Z,15.49
2023-02-24T20:18:09.380Z,15.51
2023-02-24T20:23:11.529Z,15.53
2023-02-24T20:28:13.744Z,15.49
2023-02-24T20:33:16.688Z,15.47
2023-02-24T20:38:18.855Z,15.29
2023-02-24T20:43:21.379Z,15.38
2023-02-24T20:48:23.735Z,15.28
2023-02-24T20:53:25.862Z,15.21
2023-02-24T20:58:28.024Z,15.04
2023-02-24T21:03:30.127Z,14.81
2023-02-24T21:08:32.264Z,14.75
2023-02-24T21:13:43.159Z,14.81
2023-02-24T21:18:47.117Z,14.65
2023-02-24T21:23:50.788Z,14.79
2023-02-24T21:28:58.020Z,14.53
2023-02-24T21:34:00.236Z,14.51
2023-02-24T21:39:02.448Z,14.46
2023-02-24T21:44:05.371Z,14.51
2023-02-24T21:49:08.244Z,14.58
2023-02-24T21:54:12.740Z,14.25
2023-02-24T21:59:14.966Z,14.49
2023-02-24T22:04:19.243Z,14.38
2023-02-24T22:09:21.485Z,14.25
2023-02-24T22:14:23.675Z,14.04
2023-02-24T22:19:25.774Z,14.18
2023-02-24T22:24:27.913Z,14.26
2023-02-24T22:29:30.109Z,14.29
2023-02-24T22:34:32.270Z,14.12
2023-02-24T22:39:34.764Z,13.97
2023-02-24T22:44:38.209Z,13.87
2023-02-24T22:49:40.302Z,13.48
2023-02-24T22:54:43.004Z,13.79
2023-02-24T22:59:45.632Z,13.98
2023-02-24T23:04:47.811Z,13.83
2023-02-24T23:09:53.259Z,13.83
2023-02-24T23:14:55.465Z,13.80
2023-02-24T23:19:59.015Z,13.88
2023-02-24T23:25:01.644Z,13.85
2023-02-24T23:30:04.407Z,13.92
2023-02-24T23:35:07.082Z,13.78
2023-02-24T23:40:11.294Z,13.83
2023-02-24T23:45:13.425Z,13.71
2023-02-24T23:50:15.578Z,13.79
2023-02-24T23:55:17.853Z,13.72
